Time;durP1;ratioP1;P1;durP2;ratioP2;P2;SDS_P1;SDS_P2;PMS_P1;PMS_P2;Temp;Humidity;BMP_temperature;BMP_pressure;BME280_temperature;BME280_humidity;BME280_pressure;Samples;Min_cycle;Max_cycle;Signal;HPM_P1;HPM_P2
2021/12/12 00:02:25;;;;;;;14.15;6.28;;;;;;;;;;5092252;28;20114;-74
2021/12/12 00:04:53;;;;;;;15.77;6.47;;;;;;;;;;5092605;28;20444;-74
2021/12/12 00:07:21;;;;;;;13.25;6.13;;;;;;;;;;5096693;28;20099;-75
2021/12/12 00:09:51;;;;;;;15.10;6.50;;;;;;;;;;5096351;28;20442;-74
2021/12/12 00:12:24;;;;;;;16.38;7.00;;;;;;;;;;5095470;28;20077;-73
2021/12/12 00:14:51;;;;;;;13.43;5.55;;;;;;;;;;5095509;28;20153;-73
2021/12/12 00:17:18;;;;;;;21.38;7.70;;;;;;;;;;5113685;28;20423;-73
2021/12/12 00:19:44;;;;;;;14.85;6.53;;;;;;;;;;5113673;28;20030;-74
2021/12/12 00:22:15;;;;;;;13.13;5.93;;;;;;;;;;5113660;28;20077;-74
2021/12/12 00:24:41;;;;;;;15.43;6.20;;;;;;;;;;5095422;28;20027;-74
2021/12/12 00:27:08;;;;;;;12.52;5.35;;;;;;;;;;5095300;28;20098;-72
2021/12/12 00:29:35;;;;;;;15.18;6.68;;;;;;;;;;5118230;28;20415;-74
2021/12/12 00:32:05;;;;;;;15.35;6.15;;;;;;;;;;5099422;28;20117;-73
2021/12/12 00:34:34;;;;;;;13.50;7.07;;;;;;;;;;5099324;28;20415;-74
2021/12/12 00:37:00;;;;;;;12.90;6.53;;;;;;;;;;5099308;28;20156;-74
2021/12/12 00:39:27;;;;;;;15.93;6.43;;;;;;;;;;5099376;28;20020;-74
2021/12/12 00:42:02;;;;;;;14.00;5.68;;;;;;;;;;5099201;28;20392;-74
2021/12/12 00:44:29;;;;;;;12.82;6.07;;;;;;;;;;5099173;28;20050;-74
2021/12/12 00:46:57;;;;;;;13.52;6.35;;;;;;;;;;5117324;28;20028;-74
2021/12/12 00:49:24;;;;;;;12.52;5.45;;;;;;;;;;5099141;28;20027;-74
2021/12/12 00:51:50;;;;;;;12.90;5.95;;;;;;;;;;5117325;28;20063;-74
2021/12/12 00:54:17;;;;;;;11.20;5.53;;;;;;;;;;5098855;28;20036;-74
2021/12/12 00:56:44;;;;;;;14.48;6.13;;;;;;;;;;5117682;28;20107;-75
2021/12/12 00:59:11;;;;;;;15.13;6.88;;;;;;;;;;5117168;28;20038;-74
2021/12/12 01:01:44;;;;;;;11.43;5.75;;;;;;;;;;5117084;28;20464;-73
2021/12/12 01:04:13;;;;;;;17.25;7.28;;;;;;;;;;5098783;28;20026;-73
2021/12/12 01:06:40;;;;;;;16.67;6.80;;;;;;;;;;5098835;28;20551;-74
2021/12/12 01:09:09;;;;;;;16.42;6.72;;;;;;;;;;5095203;28;20052;-73
2021/12/12 01:11:39;;;;;;;16.95;6.75;;;;;;;;;;5096825;28;20419;-72
2021/12/12 01:14:08;;;;;;;16.98;7.22;;;;;;;;;;5095201;28;20440;-72
2021/12/12 01:16:46;;;;;;;16.98;7.05;;;;;;;;;;5095217;28;20522;-73
2021/12/12 01:19:17;;;;;;;17.35;7.78;;;;;;;;;;5096810;28;20376;-71
2021/12/12 01:21:50;;;;;;;19.58;8.45;;;;;;;;;;5095060;28;20033;-73
2021/12/12 01:24:28;;;;;;;16.83;7.78;;;;;;;;;;5095151;28;20032;-74
2021/12/12 01:26:55;;;;;;;22.42;8.57;;;;;;;;;;5094953;28;20020;-73
2021/12/12 01:29:21;;;;;;;19.60;8.90;;;;;;;;;;5094986;28;20396;-74
2021/12/12 01:31:49;;;;;;;19.88;8.00;;;;;;;;;;5096178;28;20070;-74
2021/12/12 01:34:28;;;;;;;19.60;8.43;;;;;;;;;;5096292;28;20040;-72
2021/12/12 01:39:27;;;;;;;18.42;8.25;;;;;;;;;;5095493;28;20059;-74
2021/12/12 01:41:56;;;;;;;20.27;9.40;;;;;;;;;;5095884;28;20107;-74
2021/12/12 01:44:35;;;;;;;21.58;8.88;;;;;;;;;;5095972;28;20047;-74
2021/12/12 01:47:07;;;;;;;17.27;8.73;;;;;;;;;;5095875;28;20021;-75
2021/12/12 01:49:34;;;;;;;18.27;8.55;;;;;;;;;;5096322;28;20024;-75
2021/12/12 01:52:02;;;;;;;13.73;6.00;;;;;;;;;;5096080;28;20113;-74
2021/12/12 01:54:32;;;;;;;18.33;8.43;;;;;;;;;;5096753;28;20043;-74
2021/12/12 01:56:59;;;;;;;19.10;8.63;;;;;;;;;;5094456;28;20027;-73
2021/12/12 01:59:28;;;;;;;18.88;7.75;;;;;;;;;;5094432;28;20028;-74
2021/12/12 02:01:56;;;;;;;17.23;8.40;;;;;;;;;;5095701;28;20020;-74
2021/12/12 02:04:26;;;;;;;16.80;7.30;;;;;;;;;;5094511;28;20503;-74
2021/12/12 02:06:55;;;;;;;18.15;8.32;;;;;;;;;;5094336;28;20111;-74
2021/12/12 02:09:22;;;;;;;15.40;6.97;;;;;;;;;;5115198;28;20051;-75
2021/12/12 02:11:52;;;;;;;14.63;5.95;;;;;;;;;;5098420;28;20031;-73
2021/12/12 02:14:19;;;;;;;18.10;7.30;;;;;;;;;;5097434;28;20035;-74
2021/12/12 02:16:47;;;;;;;17.13;7.20;;;;;;;;;;5116158;28;20058;-75
2021/12/12 02:19:15;;;;;;;15.63;6.72;;;;;;;;;;5097996;28;20070;-75
2021/12/12 02:22:23;;;;;;;18.27;7.72;;;;;;;;;;5115638;28;20112;-72
2021/12/12 02:35:26;;;;;;;15.38;6.25;;;;;;;;;;5115410;28;20093;-72
2021/12/12 02:37:54;;;;;;;16.55;7.28;;;;;;;;;;5115331;28;20015;-74
2021/12/12 02:40:25;;;;;;;15.32;7.68;;;;;;;;;;5097825;28;20023;-75
2021/12/12 02:42:52;;;;;;;13.18;6.80;;;;;;;;;;5096869;28;20127;-74
2021/12/12 02:45:20;;;;;;;15.85;7.43;;;;;;;;;;5115155;28;20107;-75
2021/12/12 02:47:53;;;;;;;20.70;8.25;;;;;;;;;;5115610;28;20023;-72
2021/12/12 02:50:21;;;;;;;16.13;6.47;;;;;;;;;;5096200;28;20440;-74
2021/12/12 02:52:51;;;;;;;18.63;8.57;;;;;;;;;;5115405;28;20087;-74
2021/12/12 02:55:22;;;;;;;18.10;7.63;;;;;;;;;;5096604;28;20123;-74
2021/12/12 02:57:49;;;;;;;15.75;6.80;;;;;;;;;;5096635;28;20050;-75
2021/12/12 03:00:18;;;;;;;17.67;8.27;;;;;;;;;;5114845;28;20106;-75
2021/12/12 03:02:46;;;;;;;14.48;6.88;;;;;;;;;;5096557;28;20024;-71
2021/12/12 03:05:14;;;;;;;17.08;6.15;;;;;;;;;;5096495;28;20023;-73
2021/12/12 03:07:40;;;;;;;13.45;6.53;;;;;;;;;;5092872;28;20052;-72
2021/12/12 03:10:09;;;;;;;15.07;6.90;;;;;;;;;;5094374;28;20051;-72
2021/12/12 03:12:36;;;;;;;9.82;4.78;;;;;;;;;;5094227;28;20027;-72
2021/12/12 03:15:15;;;;;;;11.93;6.20;;;;;;;;;;5094757;28;20039;-74
2021/12/12 03:17:42;;;;;;;14.50;6.25;;;;;;;;;;5094481;28;20016;-72
2021/12/12 03:20:25;;;;;;;12.90;6.13;;;;;;;;;;5092917;28;20461;-73
2021/12/12 03:22:57;;;;;;;12.88;5.95;;;;;;;;;;5092917;28;20024;-74
2021/12/12 03:25:24;;;;;;;11.60;5.57;;;;;;;;;;5093885;28;20028;-72
2021/12/12 03:27:51;;;;;;;12.85;6.15;;;;;;;;;;5092489;28;20077;-75
2021/12/12 03:30:17;;;;;;;13.60;6.57;;;;;;;;;;5094268;28;20028;-73
2021/12/12 03:32:43;;;;;;;12.73;6.28;;;;;;;;;;5093905;28;20031;-73
2021/12/12 03:35:10;;;;;;;13.80;6.28;;;;;;;;;;5092607;28;20039;-74
2021/12/12 03:37:37;;;;;;;16.73;6.93;;;;;;;;;;5092610;28;20404;-74
2021/12/12 03:40:09;;;;;;;11.55;5.97;;;;;;;;;;5093838;28;20508;-73
2021/12/12 03:42:35;;;;;;;11.40;5.38;;;;;;;;;;5092607;28;20024;-73
2021/12/12 03:45:02;;;;;;;12.05;5.78;;;;;;;;;;5092448;28;20020;-74
2021/12/12 03:47:32;;;;;;;13.18;5.78;;;;;;;;;;5093671;28;20032;-74
2021/12/12 03:50:01;;;;;;;12.13;6.25;;;;;;;;;;5092385;28;20020;-74
2021/12/12 03:52:27;;;;;;;10.95;5.32;;;;;;;;;;5092366;28;20499;-74
2021/12/12 03:54:58;;;;;;;15.98;6.25;;;;;;;;;;5092334;28;20515;-74
2021/12/12 03:57:24;;;;;;;10.43;5.47;;;;;;;;;;5092392;28;20027;-74
2021/12/12 03:59:51;;;;;;;10.75;5.28;;;;;;;;;;5093638;28;20028;-74
2021/12/12 04:02:18;;;;;;;9.90;4.63;;;;;;;;;;5093243;28;20024;-74
2021/12/12 04:04:45;;;;;;;9.85;5.30;;;;;;;;;;5093532;28;20024;-72
2021/12/12 04:07:13;;;;;;;10.73;5.10;;;;;;;;;;5093535;28;20434;-73
2021/12/12 04:09:39;;;;;;;9.90;5.30;;;;;;;;;;5113902;28;20031;-75
2021/12/12 04:12:07;;;;;;;11.30;4.57;;;;;;;;;;5114055;28;20024;-73
2021/12/12 04:14:34;;;;;;;9.52;4.75;;;;;;;;;;5114211;28;20468;-74
2021/12/12 04:17:05;;;;;;;10.82;4.53;;;;;;;;;;5113994;28;20132;-73
2021/12/12 04:19:31;;;;;;;10.75;4.45;;;;;;;;;;5095517;28;20028;-74
2021/12/12 04:21:57;;;;;;;8.98;3.88;;;;;;;;;;5113716;28;20028;-74
2021/12/12 04:24:26;;;;;;;9.25;4.88;;;;;;;;;;5113616;28;20484;-73
2021/12/12 04:26:53;;;;;;;9.23;4.38;;;;;;;;;;5113689;28;20011;-73
2021/12/12 04:29:25;;;;;;;11.40;4.70;;;;;;;;;;5113826;28;20032;-72
2021/12/12 04:31:52;;;;;;;8.02;3.80;;;;;;;;;;5095537;28;20024;-74
2021/12/12 04:34:21;;;;;;;9.63;4.40;;;;;;;;;;5095273;28;20036;-75
2021/12/12 04:36:48;;;;;;;9.15;3.60;;;;;;;;;;5114355;28;20364;-74
2021/12/12 04:39:16;;;;;;;10.35;3.60;;;;;;;;;;5114126;28;20027;-73
2021/12/12 04:41:43;;;;;;;9.93;4.13;;;;;;;;;;5095225;28;20034;-73
2021/12/12 04:44:10;;;;;;;7.50;3.63;;;;;;;;;;5113432;28;20026;-72
2021/12/12 04:50:02;;;;;;;6.85;3.13;;;;;;;;;;5113759;28;20495;-72
2021/12/12 04:52:48;;;;;;;6.75;3.45;;;;;;;;;;5113107;28;20387;-72
2021/12/12 04:55:21;;;;;;;8.30;3.92;;;;;;;;;;5094853;28;20067;-73
2021/12/12 04:58:06;;;;;;;8.18;3.72;;;;;;;;;;5113989;28;20072;-73
2021/12/12 05:00:36;;;;;;;9.68;3.70;;;;;;;;;;5095184;28;20031;-73
2021/12/12 05:03:02;;;;;;;7.93;3.83;;;;;;;;;;5095043;28;20020;-74
2021/12/12 05:05:30;;;;;;;7.47;3.17;;;;;;;;;;5113270;28;20024;-74
2021/12/12 05:08:15;;;;;;;6.30;3.60;;;;;;;;;;5092005;28;20485;-74
2021/12/12 05:10:43;;;;;;;6.28;3.13;;;;;;;;;;5091650;28;20094;-73
2021/12/12 05:13:16;;;;;;;6.22;3.13;;;;;;;;;;5091679;28;20028;-73
2021/12/12 05:15:44;;;;;;;11.15;3.45;;;;;;;;;;5094817;28;20074;-72
2021/12/12 05:18:15;;;;;;;6.75;3.10;;;;;;;;;;5096090;28;20035;-73
2021/12/12 05:20:43;;;;;;;7.13;3.30;;;;;;;;;;5095179;28;20052;-74
2021/12/12 05:23:12;;;;;;;8.85;3.55;;;;;;;;;;5095994;28;20365;-72
2021/12/12 05:25:41;;;;;;;6.22;2.92;;;;;;;;;;5096288;28;20384;-73
2021/12/12 05:28:08;;;;;;;6.32;3.38;;;;;;;;;;5096308;28;20471;-74
2021/12/12 05:30:35;;;;;;;6.38;2.80;;;;;;;;;;5096468;28;20418;-74
2021/12/12 05:33:02;;;;;;;4.95;2.20;;;;;;;;;;5094975;28;20552;-74
2021/12/12 05:35:31;;;;;;;6.68;2.95;;;;;;;;;;5096067;28;20165;-73
2021/12/12 05:37:58;;;;;;;5.50;2.25;;;;;;;;;;5094816;28;20034;-74
2021/12/12 05:40:27;;;;;;;7.22;3.10;;;;;;;;;;5096086;28;20016;-74
2021/12/12 05:42:54;;;;;;;8.73;2.45;;;;;;;;;;5096007;28;20024;-74
2021/12/12 05:45:20;;;;;;;4.95;2.13;;;;;;;;;;5094786;28;20426;-74
2021/12/12 05:47:47;;;;;;;8.93;3.30;;;;;;;;;;5095960;28;20032;-75
2021/12/12 05:50:15;;;;;;;7.20;2.97;;;;;;;;;;5095978;28;20028;-74
2021/12/12 05:52:45;;;;;;;5.32;2.70;;;;;;;;;;5095856;28;20024;-73
2021/12/12 05:55:12;;;;;;;6.93;3.17;;;;;;;;;;5094415;28;20036;-74
2021/12/12 05:57:39;;;;;;;5.93;3.03;;;;;;;;;;5094499;28;20030;-72
2021/12/12 06:00:08;;;;;;;4.43;1.88;;;;;;;;;;5094518;28;20032;-72
2021/12/12 06:02:35;;;;;;;5.22;2.70;;;;;;;;;;5094692;28;20358;-73
2021/12/12 06:05:01;;;;;;;6.13;3.15;;;;;;;;;;5094371;28;20028;-72
2021/12/12 06:07:29;;;;;;;6.78;3.10;;;;;;;;;;5094090;28;20071;-73
2021/12/12 06:09:57;;;;;;;5.30;2.58;;;;;;;;;;5094302;28;20085;-73
2021/12/12 06:12:24;;;;;;;6.25;3.05;;;;;;;;;;5095713;28;20052;-74
2021/12/12 06:14:50;;;;;;;7.25;3.05;;;;;;;;;;5094608;28;20040;-72
2021/12/12 06:17:18;;;;;;;8.35;3.80;;;;;;;;;;5093121;28;20103;-73
2021/12/12 06:19:45;;;;;;;7.90;3.42;;;;;;;;;;5094652;28;20389;-72
2021/12/12 06:22:11;;;;;;;7.53;3.50;;;;;;;;;;5093457;28;20042;-73
2021/12/12 06:24:40;;;;;;;8.32;3.15;;;;;;;;;;5094270;28;20024;-73
2021/12/12 06:27:08;;;;;;;9.75;4.25;;;;;;;;;;5076285;28;20038;-73
2021/12/12 06:29:34;;;;;;;7.80;3.50;;;;;;;;;;5093117;28;20024;-73
2021/12/12 06:32:00;;;;;;;8.50;4.03;;;;;;;;;;5092924;28;20075;-72
2021/12/12 06:34:27;;;;;;;9.30;4.38;;;;;;;;;;5094283;28;20039;-73
2021/12/12 06:36:53;;;;;;;6.35;2.95;;;;;;;;;;5093270;28;20031;-72
2021/12/12 06:39:19;;;;;;;11.05;4.60;;;;;;;;;;5094734;28;20032;-73
2021/12/12 06:41:47;;;;;;;10.93;4.40;;;;;;;;;;5093552;28;20042;-74
2021/12/12 06:44:13;;;;;;;9.60;4.15;;;;;;;;;;5094910;28;20125;-72
2021/12/12 06:46:41;;;;;;;12.50;5.25;;;;;;;;;;5093811;28;20016;-72
2021/12/12 06:49:08;;;;;;;8.27;4.47;;;;;;;;;;5092437;28;20032;-73
2021/12/12 06:51:36;;;;;;;9.82;4.68;;;;;;;;;;5092514;28;20024;-73
2021/12/12 06:54:04;;;;;;;9.65;4.68;;;;;;;;;;5092333;28;20028;-73
2021/12/12 06:56:30;;;;;;;14.00;4.72;;;;;;;;;;5092891;28;20425;-73
2021/12/12 06:58:58;;;;;;;7.55;3.90;;;;;;;;;;5093185;28;20070;-73
2021/12/12 07:01:25;;;;;;;11.13;5.28;;;;;;;;;;5092852;28;20024;-72
2021/12/12 07:03:54;;;;;;;8.70;4.13;;;;;;;;;;5092863;28;20059;-72
2021/12/12 07:06:22;;;;;;;7.30;4.43;;;;;;;;;;5092863;28;20047;-73
2021/12/12 07:08:48;;;;;;;8.52;4.85;;;;;;;;;;5108931;28;20503;-75
2021/12/12 07:11:16;;;;;;;8.98;4.70;;;;;;;;;;5114494;28;20032;-74
2021/12/12 07:13:43;;;;;;;14.48;6.45;;;;;;;;;;5095762;28;20491;-73
2021/12/12 07:16:09;;;;;;;8.63;4.22;;;;;;;;;;5114353;28;20043;-73
2021/12/12 07:18:36;;;;;;;8.05;3.55;;;;;;;;;;5114443;28;20098;-73
2021/12/12 07:21:05;;;;;;;13.23;5.88;;;;;;;;;;5113462;28;20019;-72
2021/12/12 07:23:33;;;;;;;9.00;4.70;;;;;;;;;;5110525;28;20019;-73
2021/12/12 07:26:01;;;;;;;9.27;5.28;;;;;;;;;;5113071;28;20388;-73
2021/12/12 07:28:28;;;;;;;11.48;5.00;;;;;;;;;;5094929;28;20022;-72
2021/12/12 07:30:58;;;;;;;10.07;5.68;;;;;;;;;;5114823;28;20027;-73
2021/12/12 07:33:24;;;;;;;11.35;5.07;;;;;;;;;;5096092;28;20110;-73
2021/12/12 07:35:51;;;;;;;9.05;5.05;;;;;;;;;;5095983;28;20036;-72
2021/12/12 07:38:18;;;;;;;10.85;4.30;;;;;;;;;;5113741;28;20059;-72
2021/12/12 07:40:45;;;;;;;9.50;4.53;;;;;;;;;;5114728;28;20020;-72
2021/12/12 07:43:11;;;;;;;9.25;4.90;;;;;;;;;;5095909;28;20061;-72
2021/12/12 07:45:37;;;;;;;8.02;4.70;;;;;;;;;;5114104;28;20478;-72
2021/12/12 07:48:04;;;;;;;9.80;4.38;;;;;;;;;;5114327;28;20019;-73
2021/12/12 07:50:30;;;;;;;9.90;4.43;;;;;;;;;;5079184;28;20053;-72
2021/12/12 07:52:56;;;;;;;8.80;4.25;;;;;;;;;;5113988;28;20476;-73
2021/12/12 07:55:24;;;;;;;7.70;4.13;;;;;;;;;;5113948;28;20036;-72
2021/12/12 07:57:51;;;;;;;9.20;4.50;;;;;;;;;;5095751;28;20394;-72
2021/12/12 08:00:20;;;;;;;8.35;3.95;;;;;;;;;;5113898;28;20054;-72
2021/12/12 08:02:47;;;;;;;8.18;3.72;;;;;;;;;;5095703;28;20369;-72
2021/12/12 08:05:15;;;;;;;6.95;3.97;;;;;;;;;;5113882;28;20028;-72
2021/12/12 08:07:42;;;;;;;8.10;3.88;;;;;;;;;;5113654;28;20091;-72
2021/12/12 08:10:09;;;;;;;5.40;3.30;;;;;;;;;;5114332;28;20024;-73
2021/12/12 08:12:36;;;;;;;6.60;3.50;;;;;;;;;;5096332;28;20054;-72
2021/12/12 08:15:07;;;;;;;9.80;4.25;;;;;;;;;;5096172;28;20498;-72
2021/12/12 08:17:33;;;;;;;8.05;3.60;;;;;;;;;;5114225;28;20030;-72
2021/12/12 08:19:59;;;;;;;8.63;3.10;;;;;;;;;;5095447;28;20027;-72
2021/12/12 08:22:26;;;;;;;8.27;3.50;;;;;;;;;;5113603;28;20427;-72
2021/12/12 08:24:53;;;;;;;10.20;3.88;;;;;;;;;;5113620;28;20027;-72
2021/12/12 08:27:20;;;;;;;7.15;2.83;;;;;;;;;;5095429;28;20030;-72
2021/12/12 08:29:46;;;;;;;4.88;2.00;;;;;;;;;;5095289;28;20085;-72
2021/12/12 08:32:14;;;;;;;6.13;2.67;;;;;;;;;;5095425;28;20024;-72
2021/12/12 08:34:41;;;;;;;7.05;2.13;;;;;;;;;;5114004;28;20522;-72
2021/12/12 08:37:08;;;;;;;3.80;2.10;;;;;;;;;;5113578;28;20011;-72
2021/12/12 08:39:34;;;;;;;8.77;2.25;;;;;;;;;;5095285;28;20024;-72
2021/12/12 08:42:01;;;;;;;5.13;1.77;;;;;;;;;;5113513;28;20024;-72
2021/12/12 08:44:28;;;;;;;4.45;2.40;;;;;;;;;;5095245;28;20122;-72
2021/12/12 08:46:55;;;;;;;6.38;2.03;;;;;;;;;;5113959;28;20456;-72
2021/12/12 08:49:23;;;;;;;3.15;1.65;;;;;;;;;;5096632;28;20054;-72
2021/12/12 08:51:51;;;;;;;3.35;1.60;;;;;;;;;;5117952;28;20425;-71
2021/12/12 08:54:25;;;;;;;2.92;1.50;;;;;;;;;;5098975;28;20031;-71
2021/12/12 08:56:55;;;;;;;3.88;1.70;;;;;;;;;;5117299;28;20031;-71
2021/12/12 08:59:23;;;;;;;3.58;1.85;;;;;;;;;;5098933;28;20115;-71
2021/12/12 09:01:51;;;;;;;5.90;1.75;;;;;;;;;;5098910;28;20024;-70
2021/12/12 09:04:17;;;;;;;4.35;1.98;;;;;;;;;;5099222;28;20077;-71
2021/12/12 09:06:48;;;;;;;4.28;2.08;;;;;;;;;;5115674;28;20028;-71
2021/12/12 09:09:20;;;;;;;4.60;2.13;;;;;;;;;;5115531;28;20077;-71
2021/12/12 09:11:55;;;;;;;6.50;2.47;;;;;;;;;;5110411;28;20037;-71
2021/12/12 09:14:48;;;;;;;3.80;2.35;;;;;;;;;;5097121;28;20024;-71
2021/12/12 09:17:21;;;;;;;4.75;2.05;;;;;;;;;;5111459;28;20057;-71
2021/12/12 09:19:47;;;;;;;3.72;2.03;;;;;;;;;;5094877;28;20157;-73
2021/12/12 09:22:27;;;;;;;5.93;2.45;;;;;;;;;;5098033;28;20503;-74
2021/12/12 09:25:06;;;;;;;6.80;2.63;;;;;;;;;;5077749;28;20105;-72
2021/12/12 09:27:37;;;;;;;5.22;2.05;;;;;;;;;;5077969;28;20480;-75
2021/12/12 09:30:07;;;;;;;5.93;2.35;;;;;;;;;;5078110;28;20040;-72
2021/12/12 09:32:39;;;;;;;4.60;2.58;;;;;;;;;;5077932;28;20488;-74
2021/12/12 09:35:14;;;;;;;4.95;2.45;;;;;;;;;;5078051;28;20085;-75
2021/12/12 09:37:50;;;;;;;8.60;2.90;;;;;;;;;;5078005;28;20086;-73
2021/12/12 09:40:22;;;;;;;6.57;2.50;;;;;;;;;;5077886;28;20370;-73
2021/12/12 09:43:07;;;;;;;8.40;3.30;;;;;;;;;;5077946;28;20028;-73
2021/12/12 09:45:53;;;;;;;7.93;3.70;;;;;;;;;;5077853;28;20032;-73
2021/12/12 09:51:19;;;;;;;7.15;3.60;;;;;;;;;;5096286;28;20119;-73
2021/12/12 09:54:04;;;;;;;7.80;3.25;;;;;;;;;;5077684;28;20477;-72
2021/12/12 09:56:34;;;;;;;8.13;3.78;;;;;;;;;;5077684;28;20024;-74
2021/12/12 09:59:16;;;;;;;7.53;3.25;;;;;;;;;;5095741;28;20101;-74
2021/12/12 10:01:56;;;;;;;5.95;2.78;;;;;;;;;;5077320;28;20060;-76
2021/12/12 10:04:39;;;;;;;5.35;2.53;;;;;;;;;;5077602;28;20050;-75
2021/12/12 10:07:05;;;;;;;4.78;2.50;;;;;;;;;;5077355;28;20035;-74
2021/12/12 10:09:42;;;;;;;6.50;2.80;;;;;;;;;;5077468;28;20024;-75
2021/12/12 10:12:17;;;;;;;5.68;2.83;;;;;;;;;;5077377;28;20032;-74
2021/12/12 10:14:59;;;;;;;3.75;2.40;;;;;;;;;;5077275;28;20039;-74
2021/12/12 10:17:34;;;;;;;3.92;2.22;;;;;;;;;;5077218;28;20027;-74
2021/12/12 10:20:14;;;;;;;4.20;2.17;;;;;;;;;;5077251;28;20089;-73
2021/12/12 10:22:41;;;;;;;6.35;2.17;;;;;;;;;;5077081;28;20503;-74
2021/12/12 10:25:12;;;;;;;7.47;2.33;;;;;;;;;;5077082;28;20035;-76
2021/12/12 10:27:44;;;;;;;5.13;2.30;;;;;;;;;;5095186;28;20024;-74
2021/12/12 10:30:11;;;;;;;7.40;2.42;;;;;;;;;;5077046;28;20052;-75
2021/12/12 10:32:59;;;;;;;5.35;2.05;;;;;;;;;;5095090;28;20095;-74
2021/12/12 10:35:30;;;;;;;4.47;2.05;;;;;;;;;;5076720;28;20396;-74
2021/12/12 10:37:59;;;;;;;4.43;2.10;;;;;;;;;;5076760;28;20374;-74
2021/12/12 10:40:36;;;;;;;7.28;2.35;;;;;;;;;;5076785;28;20031;-75
2021/12/12 10:43:05;;;;;;;4.00;2.05;;;;;;;;;;5095436;28;20031;-76
2021/12/12 10:45:40;;;;;;;4.45;1.95;;;;;;;;;;5076635;28;20089;-76
2021/12/12 10:48:10;;;;;;;5.15;2.13;;;;;;;;;;5076709;28;20020;-73
2021/12/12 10:50:52;;;;;;;4.32;2.50;;;;;;;;;;5076535;28;20493;-75
2021/12/12 10:53:25;;;;;;;4.43;2.45;;;;;;;;;;5077295;28;20407;-76
2021/12/12 10:55:57;;;;;;;5.82;2.67;;;;;;;;;;5076386;28;20419;-75
2021/12/12 10:58:28;;;;;;;5.68;2.20;;;;;;;;;;5076507;28;20031;-75
2021/12/12 11:00:57;;;;;;;4.40;1.92;;;;;;;;;;5076409;28;20385;-75
2021/12/12 11:03:46;;;;;;;7.35;2.30;;;;;;;;;;5076308;28;20031;-75
2021/12/12 11:06:29;;;;;;;6.25;2.75;;;;;;;;;;5065885;28;20396;-75
2021/12/12 11:08:59;;;;;;;5.03;2.60;;;;;;;;;;5056159;28;20061;-75
2021/12/12 11:11:28;;;;;;;4.38;2.17;;;;;;;;;;5072152;28;20032;-75
2021/12/12 11:14:13;;;;;;;6.38;2.55;;;;;;;;;;5072697;28;20056;-75
2021/12/12 11:16:59;;;;;;;4.00;2.03;;;;;;;;;;5073982;28;20025;-75
2021/12/12 11:19:26;;;;;;;4.35;1.98;;;;;;;;;;5072664;28;20067;-75
2021/12/12 11:22:02;;;;;;;4.68;2.42;;;;;;;;;;5073964;28;20362;-75
2021/12/12 11:24:31;;;;;;;3.38;1.65;;;;;;;;;;5072604;28;20016;-73
2021/12/12 11:27:05;;;;;;;4.80;2.42;;;;;;;;;;5072562;28;20028;-75
2021/12/12 11:29:38;;;;;;;5.75;2.60;;;;;;;;;;5072571;28;20016;-75
2021/12/12 11:32:07;;;;;;;6.38;2.08;;;;;;;;;;5072504;28;20131;-74
2021/12/12 11:34:33;;;;;;;8.88;5.30;;;;;;;;;;5072352;28;20039;-73
2021/12/12 11:37:12;;;;;;;7.75;4.03;;;;;;;;;;5072457;28;20051;-73
2021/12/12 11:40:05;;;;;;;10.45;5.38;;;;;;;;;;5072380;28;20024;-72
2021/12/12 11:42:36;;;;;;;4.82;2.53;;;;;;;;;;5073729;28;20048;-74
2021/12/12 11:45:09;;;;;;;11.75;5.85;;;;;;;;;;5072235;28;20020;-74
2021/12/12 11:47:47;;;;;;;8.45;2.75;;;;;;;;;;5072284;28;20025;-74
2021/12/12 11:50:22;;;;;;;29.13;13.32;;;;;;;;;;5072177;28;20123;-75
2021/12/12 11:52:51;;;;;;;9.85;4.97;;;;;;;;;;5072259;28;20503;-73
2021/12/12 11:55:20;;;;;;;6.18;2.35;;;;;;;;;;5072055;28;20040;-73
2021/12/12 11:58:05;;;;;;;19.52;7.38;;;;;;;;;;5072195;28;20049;-75
2021/12/12 12:00:34;;;;;;;9.75;5.43;;;;;;;;;;5073372;28;20029;-72
2021/12/12 12:03:09;;;;;;;11.10;4.15;;;;;;;;;;5072055;28;20024;-74
2021/12/12 12:05:38;;;;;;;6.80;3.28;;;;;;;;;;5072021;28;20135;-75
2021/12/12 12:08:10;;;;;;;12.02;3.83;;;;;;;;;;5071852;28;20090;-75
2021/12/12 12:10:56;;;;;;;7.65;2.85;;;;;;;;;;5072035;28;20033;-74
2021/12/12 12:13:41;;;;;;;5.60;2.33;;;;;;;;;;5042236;28;20076;-73
2021/12/12 12:16:26;;;;;;;7.40;3.47;;;;;;;;;;5072042;28;20040;-72
2021/12/12 12:18:55;;;;;;;5.10;2.28;;;;;;;;;;5071985;28;20025;-72
2021/12/12 12:21:51;;;;;;;4.88;2.30;;;;;;;;;;5073119;28;20048;-72
2021/12/12 12:24:25;;;;;;;6.68;3.35;;;;;;;;;;5005797;28;20030;-71
2021/12/12 12:27:02;;;;;;;8.05;4.07;;;;;;;;;;5077197;28;20167;-72
2021/12/12 12:29:31;;;;;;;6.25;3.22;;;;;;;;;;5076034;28;20495;-71
2021/12/12 12:32:13;;;;;;;10.20;3.90;;;;;;;;;;5077162;28;20111;-71
2021/12/12 12:34:45;;;;;;;10.85;4.55;;;;;;;;;;5075739;28;20111;-74
2021/12/12 12:37:11;;;;;;;7.93;3.40;;;;;;;;;;5075843;28;20170;-74
2021/12/12 12:39:56;;;;;;;12.20;4.65;;;;;;;;;;5075717;28;20020;-72
2021/12/12 12:42:42;;;;;;;8.90;4.63;;;;;;;;;;5077000;28;20089;-72
2021/12/12 12:45:14;;;;;;;8.23;3.90;;;;;;;;;;5075704;28;20024;-73
2021/12/12 12:47:59;;;;;;;8.32;4.32;;;;;;;;;;5075557;28;20029;-72
2021/12/12 12:50:39;;;;;;;6.90;3.65;;;;;;;;;;5077329;28;20388;-73
2021/12/12 12:53:19;;;;;;;7.30;4.15;;;;;;;;;;5075539;28;20028;-73
2021/12/12 12:56:07;;;;;;;10.07;4.38;;;;;;;;;;5075425;28;20505;-73
2021/12/12 12:58:41;;;;;;;6.93;3.83;;;;;;;;;;5075474;28;20040;-74
2021/12/12 13:01:17;;;;;;;9.35;4.30;;;;;;;;;;5075282;28;20377;-73
2021/12/12 13:04:02;;;;;;;14.32;4.53;;;;;;;;;;5075290;28;20028;-74
2021/12/12 13:06:46;;;;;;;8.70;4.40;;;;;;;;;;5076496;28;20036;-72
2021/12/12 13:09:21;;;;;;;7.70;3.92;;;;;;;;;;5094270;28;20040;-72
2021/12/12 13:11:47;;;;;;;9.15;4.00;;;;;;;;;;5078575;28;20028;-72
2021/12/12 13:14:13;;;;;;;10.35;4.20;;;;;;;;;;5078336;28;20027;-72
2021/12/12 13:17:09;;;;;;;8.38;4.70;;;;;;;;;;5096571;28;20024;-72
2021/12/12 13:19:54;;;;;;;9.95;4.75;;;;;;;;;;5079437;28;20555;-71
2021/12/12 13:22:29;;;;;;;9.13;4.50;;;;;;;;;;5078269;28;20396;-72
2021/12/12 13:25:25;;;;;;;11.63;4.93;;;;;;;;;;5078244;28;20020;-72
2021/12/12 13:28:18;;;;;;;8.57;3.60;;;;;;;;;;5079854;28;20028;-72
2021/12/12 13:30:44;;;;;;;7.50;4.38;;;;;;;;;;5096932;28;20027;-72
2021/12/12 13:33:28;;;;;;;9.20;4.20;;;;;;;;;;5096539;28;20020;-71
2021/12/12 13:36:13;;;;;;;9.80;4.63;;;;;;;;;;5095960;28;20063;-72
2021/12/12 13:38:42;;;;;;;9.43;4.47;;;;;;;;;;5096151;28;20024;-72
2021/12/12 13:41:18;;;;;;;9.57;4.18;;;;;;;;;;5096172;28;20028;-71
2021/12/12 13:43:59;;;;;;;12.88;5.40;;;;;;;;;;5096216;28;20141;-71
2021/12/12 13:46:26;;;;;;;12.32;4.53;;;;;;;;;;5096103;28;20028;-72
2021/12/12 13:48:59;;;;;;;9.52;4.00;;;;;;;;;;5096165;28;20028;-71
2021/12/12 13:51:35;;;;;;;9.18;4.40;;;;;;;;;;5077844;28;20028;-71
2021/12/12 13:54:07;;;;;;;8.93;4.47;;;;;;;;;;5077634;28;20031;-72
2021/12/12 13:56:37;;;;;;;9.90;4.25;;;;;;;;;;5095813;28;20035;-73
2021/12/12 13:59:04;;;;;;;10.48;4.90;;;;;;;;;;5077788;28;20492;-72
2021/12/12 14:01:56;;;;;;;8.88;4.25;;;;;;;;;;5096326;28;20411;-72
2021/12/12 14:04:43;;;;;;;10.38;4.90;;;;;;;;;;5064445;28;20036;-72
2021/12/12 14:07:09;;;;;;;9.95;4.43;;;;;;;;;;5081403;28;20381;-72
2021/12/12 14:09:37;;;;;;;8.23;4.80;;;;;;;;;;5077448;28;20028;-72
2021/12/12 14:12:06;;;;;;;11.57;4.70;;;;;;;;;;5077385;28;20507;-72
2021/12/12 14:14:45;;;;;;;8.88;4.50;;;;;;;;;;5095382;28;20480;-72
2021/12/12 14:17:21;;;;;;;9.15;4.82;;;;;;;;;;5095412;28;20027;-72
2021/12/12 14:19:51;;;;;;;10.15;4.75;;;;;;;;;;5095968;28;20510;-72
2021/12/12 14:22:18;;;;;;;10.80;5.25;;;;;;;;;;5095412;28;20024;-72
2021/12/12 14:24:45;;;;;;;11.45;5.15;;;;;;;;;;5095272;28;20480;-72
2021/12/12 14:27:13;;;;;;;10.57;4.72;;;;;;;;;;5095229;28;20028;-72
2021/12/12 14:29:42;;;;;;;12.80;4.93;;;;;;;;;;5095366;28;20028;-72
2021/12/12 14:32:15;;;;;;;12.35;5.28;;;;;;;;;;5095061;28;20443;-72
2021/12/12 14:34:51;;;;;;;11.43;4.97;;;;;;;;;;5095064;28;20111;-72
2021/12/12 14:37:22;;;;;;;9.52;4.57;;;;;;;;;;5095651;28;20024;-72
2021/12/12 14:39:49;;;;;;;10.85;5.05;;;;;;;;;;5095560;28;20023;-72
2021/12/12 14:42:26;;;;;;;8.88;4.53;;;;;;;;;;5094961;28;20074;-72
2021/12/12 14:45:00;;;;;;;13.20;5.00;;;;;;;;;;5095179;28;20028;-73
2021/12/12 14:47:31;;;;;;;12.40;5.32;;;;;;;;;;5094318;28;20228;-72
2021/12/12 14:49:59;;;;;;;10.88;5.10;;;;;;;;;;5094642;28;20380;-73
2021/12/12 14:52:29;;;;;;;14.60;5.60;;;;;;;;;;5094783;28;20027;-72
2021/12/12 14:55:01;;;;;;;11.00;5.25;;;;;;;;;;5076383;28;20031;-72
2021/12/12 14:57:30;;;;;;;10.05;4.35;;;;;;;;;;5094638;28;20020;-72
2021/12/12 15:00:20;;;;;;;9.73;5.10;;;;;;;;;;5094569;28;20485;-72
2021/12/12 15:02:48;;;;;;;11.95;5.55;;;;;;;;;;5084119;28;20054;-72
2021/12/12 15:05:21;;;;;;;13.88;5.35;;;;;;;;;;5076337;28;20081;-72
2021/12/12 15:07:49;;;;;;;12.18;5.45;;;;;;;;;;5094653;28;20122;-72
2021/12/12 15:10:19;;;;;;;14.32;5.22;;;;;;;;;;5095088;28;20036;-72
2021/12/12 15:12:47;;;;;;;11.20;4.75;;;;;;;;;;5094694;28;20089;-72
2021/12/12 15:15:30;;;;;;;11.68;5.18;;;;;;;;;;5094143;28;20501;-71
2021/12/12 15:18:02;;;;;;;12.20;5.63;;;;;;;;;;5076239;28;20439;-72
2021/12/12 15:20:34;;;;;;;12.15;5.28;;;;;;;;;;5094227;28;20073;-72
2021/12/12 15:23:02;;;;;;;14.18;5.55;;;;;;;;;;5094472;28;20021;-72